Tipton, Kansas
Current Conditions -  °F | °C
As of 11:53 PM on Friday 31 Oct 2014 (Local Time) from KRSL Reporting Station
Clear Clear  
Wind Chill: 22°   Ceiling: Unl
Heat Index: 30°   Visibility: 10mi
Dew Point: 20°   Wind: 9mph
Humidity: 66%   Direction: 130°SE
Pressure: 30.37"   Gusts: NA
Location:  39.34°N, 98.47°W
Report Text: KRSL 010453Z AUTO 13008KT 10SM CLR M01/M07 A3037 RMK AO2 SLP303 T10111067
Loading
Personal Weather Stations






























Interactive Weather Map
Tropical Storm Tracking
New forecast layout! Learn more

10-Day Weather Forecast

Advertisements
Track Severe Weather on mobile